createdAt,value
2022-09-09T00:01:16.234Z,100.00
2022-09-09T00:03:24.734Z,100.00
2022-09-09T00:05:38.780Z,100.00
2022-09-09T00:07:48.590Z,100.00
2022-09-09T00:10:00.326Z,100.00
2022-09-09T00:12:12.083Z,100.00
2022-09-09T00:14:29.632Z,100.00
2022-09-09T00:16:37.920Z,100.00
2022-09-09T00:18:55.946Z,100.00
2022-09-09T00:21:09.034Z,100.00
2022-09-09T00:23:25.827Z,100.00
2022-09-09T00:25:54.348Z,100.00
2022-09-09T00:27:57.573Z,100.00
2022-09-09T00:30:02.944Z,100.00
2022-09-09T00:32:18.554Z,100.00
2022-09-09T00:34:25.751Z,100.00
2022-09-09T00:36:30.206Z,100.00
2022-09-09T00:38:37.660Z,100.00
2022-09-09T00:40:51.323Z,100.00
2022-09-09T00:43:26.801Z,100.00
2022-09-09T00:45:44.180Z,100.00
2022-09-09T00:47:51.416Z,100.00
2022-09-09T00:50:01.442Z,100.00
2022-09-09T00:52:28.498Z,100.00
2022-09-09T00:54:39.256Z,100.00
2022-09-09T00:57:05.693Z,100.00
2022-09-09T00:59:41.096Z,100.00
2022-09-09T01:01:43.721Z,100.00
2022-09-09T01:03:56.281Z,100.00
2022-09-09T01:06:01.659Z,100.00
2022-09-09T01:08:26.412Z,100.00
2022-09-09T01:10:37.969Z,100.00
2022-09-09T01:12:44.845Z,100.00
2022-09-09T01:14:53.245Z,100.00
2022-09-09T01:17:19.736Z,100.00
2022-09-09T01:19:42.158Z,100.00
2022-09-09T01:22:03.066Z,100.00
2022-09-09T01:24:14.766Z,100.00
2022-09-09T01:26:22.952Z,100.00
2022-09-09T01:28:28.341Z,100.00
2022-09-09T01:30:40.587Z,100.00
2022-09-09T01:32:51.536Z,100.00
2022-09-09T01:34:54.149Z,100.00
2022-09-09T01:37:05.882Z,100.00
2022-09-09T01:39:08.565Z,100.00
2022-09-09T01:41:11.279Z,100.00
2022-09-09T01:43:14.568Z,100.00
2022-09-09T01:45:17.277Z,100.00
2022-09-09T01:47:21.128Z,100.00
2022-09-09T01:49:24.129Z,100.00
2022-09-09T01:51:26.872Z,100.00
2022-09-09T01:53:29.413Z,100.00
2022-09-09T01:55:40.773Z,100.00
2022-09-09T01:57:56.057Z,100.00
2022-09-09T02:00:15.361Z,100.00
2022-09-09T02:02:33.570Z,100.00
2022-09-09T02:04:51.034Z,100.00
2022-09-09T02:06:58.306Z,100.00
2022-09-09T02:09:05.760Z,100.00
2022-09-09T02:11:15.221Z,100.00
2022-09-09T02:13:21.351Z,100.00
2022-09-09T02:15:31.631Z,100.00
2022-09-09T02:17:39.494Z,100.00
2022-09-09T02:19:53.485Z,100.00
2022-09-09T02:21:58.773Z,100.00
2022-09-09T02:24:05.720Z,100.00
2022-09-09T02:26:11.498Z,100.00
2022-09-09T02:28:16.226Z,100.00
2022-09-09T02:30:21.566Z,100.00
2022-09-09T02:32:25.754Z,100.00
2022-09-09T02:34:30.056Z,100.00
2022-09-09T02:36:35.346Z,100.00
2022-09-09T02:38:43.827Z,100.00
2022-09-09T02:40:46.874Z,100.00
2022-09-09T02:42:50.841Z,100.00
2022-09-09T02:44:53.428Z,100.00
2022-09-09T02:47:14.630Z,100.00
2022-09-09T02:49:41.868Z,100.00
2022-09-09T02:51:53.001Z,100.00
2022-09-09T02:54:15.725Z,100.00
2022-09-09T02:56:22.592Z,100.00
2022-09-09T02:58:26.000Z,100.00
2022-09-09T03:00:30.152Z,100.00
2022-09-09T03:02:32.749Z,100.00
2022-09-09T03:04:35.313Z,100.00
2022-09-09T03:06:38.029Z,100.00
2022-09-09T03:08:43.370Z,100.00
2022-09-09T03:10:51.195Z,100.00
2022-09-09T03:12:53.851Z,100.00
2022-09-09T03:14:56.475Z,100.00
2022-09-09T03:17:01.942Z,100.00
2022-09-09T03:19:04.624Z,100.00
2022-09-09T03:21:08.122Z,100.00
2022-09-09T03:23:15.478Z,100.00
2022-09-09T03:25:19.129Z,100.00
2022-09-09T03:27:24.758Z,100.00
2022-09-09T03:29:30.387Z,100.00
2022-09-09T03:31:37.463Z,100.00
2022-09-09T03:33:42.279Z,100.00
2022-09-09T03:35:51.788Z,100.00
2022-09-09T03:37:56.481Z,100.00
2022-09-09T03:39:59.072Z,100.00
2022-09-09T03:42:04.982Z,100.00
2022-09-09T03:44:07.551Z,100.00
2022-09-09T03:46:10.253Z,100.00
2022-09-09T03:48:13.044Z,100.00
2022-09-09T03:50:16.434Z,100.00
2022-09-09T03:52:23.545Z,100.00
2022-09-09T03:54:26.760Z,100.00
2022-09-09T03:56:29.300Z,100.00
2022-09-09T03:58:31.810Z,100.00
2022-09-09T04:00:34.361Z,100.00
2022-09-09T04:02:36.978Z,100.00
2022-09-09T04:04:39.625Z,100.00
2022-09-09T04:06:42.343Z,100.00
2022-09-09T04:08:45.698Z,100.00
2022-09-09T04:10:51.548Z,100.00
2022-09-09T04:12:54.507Z,100.00
2022-09-09T04:14:58.076Z,100.00
2022-09-09T04:17:00.967Z,100.00
2022-09-09T04:19:05.443Z,100.00
2022-09-09T04:21:09.095Z,100.00
2022-09-09T04:23:11.664Z,100.00
2022-09-09T04:25:14.373Z,100.00
2022-09-09T04:27:16.959Z,100.00
2022-09-09T04:29:19.514Z,100.00
2022-09-09T04:31:27.081Z,100.00
2022-09-09T04:33:29.717Z,100.00
2022-09-09T04:35:32.266Z,100.00
2022-09-09T04:37:35.794Z,100.00
2022-09-09T04:39:38.609Z,100.00
2022-09-09T04:41:41.201Z,100.00
2022-09-09T04:43:43.875Z,100.00
2022-09-09T04:45:49.459Z,100.00
2022-09-09T04:47:52.099Z,100.00
2022-09-09T04:49:55.658Z,100.00
2022-09-09T04:51:58.425Z,100.00
2022-09-09T04:54:00.937Z,100.00
2022-09-09T04:56:11.328Z,100.00
2022-09-09T04:58:13.996Z,100.00
2022-09-09T05:00:18.300Z,100.00
2022-09-09T05:02:21.058Z,100.00
2022-09-09T05:04:23.714Z,100.00
2022-09-09T05:06:26.277Z,100.00
2022-09-09T05:08:28.894Z,100.00
2022-09-09T05:10:32.108Z,100.00
2022-09-09T05:12:34.701Z,100.00
2022-09-09T05:14:38.788Z,100.00
2022-09-09T05:16:41.859Z,100.00
2022-09-09T05:18:45.159Z,100.00
2022-09-09T05:20:47.729Z,100.00
2022-09-09T05:22:55.006Z,100.00
2022-09-09T05:24:57.617Z,100.00
2022-09-09T05:27:02.813Z,100.00
2022-09-09T05:29:05.984Z,100.00
2022-09-09T05:31:12.596Z,100.00
2022-09-09T05:33:15.177Z,100.00
2022-09-09T05:35:19.751Z,100.00
2022-09-09T05:37:22.296Z,100.00
2022-09-09T05:39:24.811Z,100.00
2022-09-09T05:41:27.523Z,100.00
2022-09-09T05:43:30.914Z,100.00
2022-09-09T05:45:33.491Z,100.00
2022-09-09T05:47:38.493Z,100.00
2022-09-09T05:49:41.075Z,100.00
2022-09-09T05:51:44.131Z,100.00
2022-09-09T05:53:47.129Z,100.00
2022-09-09T05:55:50.073Z,100.00
2022-09-09T05:57:52.989Z,100.00
2022-09-09T05:59:55.513Z,100.00
2022-09-09T06:01:58.241Z,100.00
2022-09-09T06:04:01.263Z,100.00
2022-09-09T06:06:06.936Z,100.00
2022-09-09T06:08:09.557Z,100.00
2022-09-09T06:10:14.701Z,100.00
2022-09-09T06:12:17.976Z,100.00
2022-09-09T06:14:20.618Z,100.00
2022-09-09T06:16:26.073Z,100.00
2022-09-09T06:18:29.292Z,100.00
2022-09-09T06:20:32.808Z,100.00
2022-09-09T06:22:35.389Z,100.00
2022-09-09T06:24:38.279Z,100.00
2022-09-09T06:26:42.243Z,100.00
2022-09-09T06:28:46.791Z,100.00
2022-09-09T06:30:49.432Z,100.00
2022-09-09T06:32:52.380Z,100.00
2022-09-09T06:34:57.626Z,100.00
2022-09-09T06:37:00.330Z,100.00
2022-09-09T06:39:03.315Z,100.00
2022-09-09T06:41:06.884Z,100.00
2022-09-09T06:43:09.524Z,100.00
2022-09-09T06:45:12.167Z,100.00
2022-09-09T06:47:14.795Z,100.00
2022-09-09T06:49:17.488Z,100.00
2022-09-09T06:51:25.194Z,100.00
2022-09-09T06:53:28.397Z,100.00
2022-09-09T06:55:31.087Z,100.00
2022-09-09T06:57:37.385Z,100.00
2022-09-09T06:59:40.652Z,100.00
2022-09-09T07:01:45.068Z,100.00
2022-09-09T07:03:53.180Z,100.00
2022-09-09T07:05:57.445Z,100.00
2022-09-09T07:08:00.087Z,100.00
2022-09-09T07:10:02.726Z,100.00
2022-09-09T07:12:07.442Z,100.00
2022-09-09T07:14:14.017Z,100.00
2022-09-09T07:16:19.026Z,100.00
2022-09-09T07:18:22.005Z,100.00
2022-09-09T07:20:24.647Z,100.00
2022-09-09T07:22:29.028Z,100.00
2022-09-09T07:24:31.763Z,100.00
2022-09-09T07:26:34.743Z,100.00
2022-09-09T07:28:38.426Z,100.00
2022-09-09T07:30:41.432Z,100.00
2022-09-09T07:32:44.654Z,100.00
2022-09-09T07:34:48.138Z,100.00
2022-09-09T07:36:50.701Z,100.00
2022-09-09T07:38:56.362Z,100.00
2022-09-09T07:41:12.958Z,100.00
2022-09-09T07:43:17.573Z,100.00
2022-09-09T07:45:20.146Z,100.00
2022-09-09T07:47:22.731Z,100.00
2022-09-09T07:49:30.892Z,100.00
2022-09-09T07:51:40.459Z,100.00
2022-09-09T07:53:43.147Z,100.00
2022-09-09T07:55:45.840Z,100.00
2022-09-09T07:57:49.770Z,100.00
2022-09-09T07:59:53.350Z,100.00
2022-09-09T08:01:56.138Z,100.00
2022-09-09T08:04:04.648Z,100.00
2022-09-09T08:06:10.023Z,100.00
2022-09-09T08:08:12.863Z,100.00
2022-09-09T08:10:17.193Z,100.00
2022-09-09T08:12:19.925Z,100.00
2022-09-09T08:14:23.132Z,100.00
2022-09-09T08:16:32.472Z,100.00
2022-09-09T08:18:35.293Z,100.00
2022-09-09T08:20:39.112Z,100.00
2022-09-09T08:22:42.531Z,100.00
2022-09-09T08:24:45.185Z,100.00
2022-09-09T08:26:50.501Z,100.00
2022-09-09T08:28:55.363Z,100.00
2022-09-09T08:31:06.731Z,100.00
2022-09-09T08:33:11.615Z,100.00
2022-09-09T08:35:14.633Z,100.00
2022-09-09T08:37:17.330Z,100.00
2022-09-09T08:39:22.335Z,100.00
2022-09-09T08:41:52.328Z,100.00
2022-09-09T08:44:18.899Z,100.00
2022-09-09T08:46:35.219Z,100.00
2022-09-09T08:48:59.224Z,100.00
2022-09-09T08:51:04.396Z,100.00
2022-09-09T08:53:14.117Z,100.00
2022-09-09T08:55:24.991Z,100.00
2022-09-09T08:57:30.328Z,100.00
2022-09-09T08:59:32.959Z,100.00
2022-09-09T09:01:48.216Z,100.00
2022-09-09T09:03:53.948Z,100.00
2022-09-09T09:06:11.813Z,99.97
2022-09-09T09:08:40.274Z,99.20
2022-09-09T09:10:55.656Z,97.05
2022-09-09T09:12:59.366Z,97.44
2022-09-09T09:15:02.231Z,97.12
2022-09-09T09:17:10.722Z,97.72
2022-09-09T09:19:17.855Z,97.13
2022-09-09T09:21:36.845Z,98.30
2022-09-09T09:23:46.888Z,98.95
2022-09-09T09:25:51.621Z,96.88
2022-09-09T09:28:23.040Z,96.62
2022-09-09T09:30:31.236Z,95.73
2022-09-09T09:32:37.632Z,96.41
2022-09-09T09:34:40.186Z,96.53
2022-09-09T09:36:48.167Z,96.64
2022-09-09T09:41:40.163Z,96.27
2022-09-09T09:43:45.688Z,95.65
2022-09-09T09:46:06.959Z,95.02
2022-09-09T09:48:15.221Z,95.03
2022-09-09T09:50:20.461Z,94.77
2022-09-09T09:52:26.370Z,94.10
2022-09-09T09:54:31.452Z,93.17
2022-09-09T09:56:34.181Z,93.76
2022-09-09T09:58:45.730Z,93.84
2022-09-09T10:00:53.257Z,93.10
2022-09-09T10:02:55.998Z,92.50
2022-09-09T10:05:15.357Z,91.57
2022-09-09T10:07:23.326Z,92.14
2022-09-09T10:09:33.923Z,92.49
2022-09-09T10:11:46.080Z,92.57
2022-09-09T10:14:22.073Z,92.44
2022-09-09T10:16:55.434Z,93.04
2022-09-09T10:19:28.880Z,94.71
2022-09-09T10:21:46.404Z,96.73
2022-09-09T10:24:26.447Z,94.10
2022-09-09T10:26:29.051Z,94.67
2022-09-09T10:28:53.241Z,94.93
2022-09-09T10:31:26.396Z,93.73
2022-09-09T10:33:43.369Z,92.93
2022-09-09T10:36:19.562Z,92.67
2022-09-09T10:38:28.086Z,91.75
2022-09-09T10:40:37.891Z,90.67
2022-09-09T10:42:40.823Z,90.20
2022-09-09T10:44:58.609Z,89.22
2022-09-09T10:47:08.246Z,88.84
2022-09-09T10:49:48.420Z,86.76
2022-09-09T10:51:57.127Z,88.86
2022-09-09T10:54:41.038Z,87.24
2022-09-09T10:56:49.549Z,85.61
2022-09-09T10:59:03.486Z,87.42
2022-09-09T11:01:27.203Z,83.85
2022-09-09T11:03:30.972Z,85.95
2022-09-09T11:05:44.290Z,86.37
2022-09-09T11:08:13.348Z,83.88
2022-09-09T11:10:26.155Z,84.71
2022-09-09T11:12:32.336Z,88.14
2022-09-09T11:14:44.284Z,86.61
2022-09-09T11:16:55.360Z,89.59
2022-09-09T11:19:26.983Z,88.80
2022-09-09T11:21:34.049Z,87.92
2022-09-09T11:23:44.647Z,80.60
2022-09-09T11:25:58.044Z,79.16
2022-09-09T11:28:48.332Z,79.63
2022-09-09T11:30:57.012Z,77.43
2022-09-09T11:33:27.452Z,78.55
2022-09-09T11:36:07.236Z,73.72
2022-09-09T11:38:26.797Z,72.72
2022-09-09T11:40:31.602Z,74.09
2022-09-09T11:42:34.319Z,76.92
2022-09-09T11:46:42.651Z,75.98
2022-09-09T11:48:47.895Z,72.92
2022-09-09T11:51:01.205Z,71.72
2022-09-09T11:53:22.088Z,71.51
2022-09-09T11:55:38.085Z,72.26
2022-09-09T11:57:41.118Z,73.23
2022-09-09T11:59:53.410Z,72.05
2022-09-09T12:01:58.033Z,73.00
2022-09-09T12:04:17.512Z,73.49
2022-09-09T12:06:34.629Z,75.36
2022-09-09T12:08:38.243Z,72.88
2022-09-09T12:10:41.654Z,72.04
2022-09-09T12:12:44.304Z,73.57
2022-09-09T12:15:26.521Z,72.57
2022-09-09T12:17:38.607Z,73.75
2022-09-09T12:19:41.234Z,73.25
2022-09-09T12:21:46.735Z,73.71
2022-09-09T12:23:57.117Z,74.37
2022-09-09T12:26:33.983Z,72.67
2022-09-09T12:28:55.171Z,71.43
2022-09-09T12:31:20.185Z,73.20
2022-09-09T12:33:23.106Z,72.75
2022-09-09T12:35:31.734Z,73.57
2022-09-09T12:37:47.786Z,70.99
2022-09-09T12:39:57.458Z,69.91
2022-09-09T12:42:00.200Z,71.10
2022-09-09T12:44:09.110Z,71.67
2022-09-09T12:46:23.013Z,69.88
2022-09-09T12:48:51.857Z,69.64
2022-09-09T12:50:55.450Z,72.09
2022-09-09T12:53:03.095Z,72.39
2022-09-09T12:55:09.593Z,72.07
2022-09-09T12:57:14.963Z,71.64
2022-09-09T12:59:37.260Z,71.67
2022-09-09T13:01:39.977Z,71.92
2022-09-09T13:03:46.845Z,71.70
2022-09-09T13:05:50.596Z,72.83
2022-09-09T13:08:03.478Z,73.27
2022-09-09T13:10:08.260Z,73.57
2022-09-09T13:12:20.986Z,71.97
2022-09-09T13:14:36.028Z,71.25
2022-09-09T13:16:42.906Z,73.44
2022-09-09T13:18:45.936Z,72.12
2022-09-09T13:20:50.030Z,73.63
2022-09-09T13:22:55.054Z,73.30
2022-09-09T13:25:18.510Z,74.46
2022-09-09T13:27:32.139Z,75.05
2022-09-09T13:29:35.257Z,74.94
2022-09-09T13:31:38.389Z,74.01
2022-09-09T13:33:41.194Z,73.56
2022-09-09T13:36:15.575Z,71.58
2022-09-09T13:38:18.729Z,72.01
2022-09-09T13:40:24.445Z,70.87
2022-09-09T13:42:30.267Z,70.62
2022-09-09T13:44:38.193Z,72.62
2022-09-09T13:46:42.775Z,72.62
2022-09-09T13:48:55.873Z,72.88
2022-09-09T13:51:06.367Z,72.53
2022-09-09T13:53:09.586Z,70.91
2022-09-09T13:55:12.230Z,69.89
2022-09-09T13:57:24.285Z,69.86
2022-09-09T13:59:42.462Z,69.31
2022-09-09T14:01:53.499Z,69.19
2022-09-09T14:03:56.233Z,70.52
2022-09-09T14:05:59.355Z,71.29
2022-09-09T14:08:04.335Z,70.53
2022-09-09T14:10:07.971Z,71.69
2022-09-09T14:12:15.030Z,71.22
2022-09-09T14:14:17.600Z,71.97
2022-09-09T14:16:21.546Z,73.52
2022-09-09T14:18:26.534Z,72.48
2022-09-09T14:20:29.150Z,72.54
2022-09-09T14:22:31.762Z,73.68
2022-09-09T14:24:35.069Z,74.02
2022-09-09T14:26:37.994Z,74.52
2022-09-09T14:28:56.785Z,74.17
2022-09-09T14:31:03.537Z,75.18
2022-09-09T14:33:06.174Z,75.00
2022-09-09T14:35:09.236Z,75.35
2022-09-09T14:37:11.910Z,78.01
2022-09-09T14:39:14.537Z,77.79
2022-09-09T14:41:18.950Z,77.53
2022-09-09T14:43:21.615Z,75.48
2022-09-09T14:45:25.972Z,75.82
2022-09-09T14:47:28.580Z,76.48
2022-09-09T14:49:31.318Z,76.73
2022-09-09T14:51:34.004Z,77.94
2022-09-09T14:53:37.429Z,77.66
2022-09-09T14:55:40.270Z,77.41
2022-09-09T14:57:43.552Z,78.83
2022-09-09T14:59:46.175Z,78.24
2022-09-09T15:01:48.905Z,78.03
2022-09-09T15:03:56.822Z,78.72
2022-09-09T15:06:02.256Z,79.92
2022-09-09T15:08:04.890Z,81.04
2022-09-09T15:10:08.015Z,80.07
2022-09-09T15:12:10.726Z,79.84
2022-09-09T15:14:13.351Z,80.79
2022-09-09T15:16:21.254Z,79.71
2022-09-09T15:18:23.919Z,80.81
2022-09-09T15:20:26.851Z,80.48
2022-09-09T15:22:29.424Z,78.94
2022-09-09T15:24:32.669Z,78.86
2022-09-09T15:26:35.478Z,77.16
2022-09-09T15:28:39.445Z,77.55
2022-09-09T15:30:42.043Z,76.40
2022-09-09T15:32:44.645Z,75.29
2022-09-09T15:34:47.368Z,76.30
2022-09-09T15:36:50.038Z,76.13
2022-09-09T15:38:53.565Z,74.24
2022-09-09T15:40:59.653Z,74.63
2022-09-09T15:43:03.297Z,74.62
2022-09-09T15:45:07.093Z,76.24
2022-09-09T15:47:13.607Z,75.01
2022-09-09T15:49:23.287Z,75.32
2022-09-09T15:51:44.218Z,77.04
2022-09-09T15:53:47.522Z,74.37
2022-09-09T15:55:56.853Z,73.63
2022-09-09T15:57:59.572Z,73.40
2022-09-09T16:00:05.904Z,75.45
2022-09-09T16:02:08.805Z,74.86
2022-09-09T16:04:11.747Z,74.29
2022-09-09T16:06:15.794Z,74.81
2022-09-09T16:08:19.354Z,75.87
2022-09-09T16:10:22.017Z,76.03
2022-09-09T16:12:24.919Z,74.17
2022-09-09T16:14:28.387Z,76.26
2022-09-09T16:16:31.711Z,75.47
2022-09-09T16:18:44.115Z,75.95
2022-09-09T16:20:55.290Z,74.85
2022-09-09T16:22:58.484Z,73.69
2022-09-09T16:25:01.158Z,73.84
2022-09-09T16:27:06.095Z,75.91
2022-09-09T16:29:09.898Z,74.60
2022-09-09T16:31:21.240Z,75.38
2022-09-09T16:33:24.004Z,76.35
2022-09-09T16:35:27.431Z,76.68
2022-09-09T16:37:30.666Z,76.54
2022-09-09T16:39:33.356Z,77.25
2022-09-09T16:41:37.045Z,77.60
2022-09-09T16:43:41.684Z,76.60
2022-09-09T16:45:45.215Z,78.09
2022-09-09T16:47:50.094Z,77.73
2022-09-09T16:49:53.078Z,79.39
2022-09-09T16:51:59.834Z,78.28
2022-09-09T16:54:04.535Z,80.15
2022-09-09T16:56:15.820Z,79.46
2022-09-09T16:58:18.466Z,80.07
2022-09-09T17:00:21.308Z,80.12
2022-09-09T17:02:25.172Z,78.53
2022-09-09T17:04:29.168Z,78.21
2022-09-09T17:06:35.872Z,79.50
2022-09-09T17:08:40.290Z,78.38
2022-09-09T17:10:43.862Z,77.62
2022-09-09T17:12:47.272Z,76.34
2022-09-09T17:14:50.981Z,76.29
2022-09-09T17:16:53.643Z,76.35
2022-09-09T17:18:57.865Z,76.63
2022-09-09T17:21:05.530Z,75.36
2022-09-09T17:23:09.849Z,75.51
2022-09-09T17:25:12.549Z,76.18
2022-09-09T17:27:15.417Z,75.89
2022-09-09T17:29:18.343Z,75.60
2022-09-09T17:31:21.567Z,75.83
2022-09-09T17:33:24.538Z,75.34
2022-09-09T17:35:28.425Z,75.83
2022-09-09T17:37:31.234Z,75.82
2022-09-09T17:39:34.614Z,76.00
2022-09-09T17:41:39.550Z,76.39
2022-09-09T17:43:43.613Z,76.36
2022-09-09T17:45:47.614Z,77.18
2022-09-09T17:47:50.782Z,76.40
2022-09-09T17:49:53.465Z,77.09
2022-09-09T17:51:57.238Z,76.63
2022-09-09T17:54:10.574Z,76.46
2022-09-09T17:56:15.665Z,76.52
2022-09-09T17:58:18.500Z,76.38
2022-09-09T18:00:21.288Z,76.55
2022-09-09T18:02:24.319Z,76.72
2022-09-09T18:04:37.026Z,77.25
2022-09-09T18:06:43.220Z,77.80
2022-09-09T18:08:54.382Z,78.27
2022-09-09T18:10:57.299Z,78.37
2022-09-09T18:13:02.273Z,78.67
2022-09-09T18:15:05.554Z,79.00
2022-09-09T18:17:09.958Z,78.87
2022-09-09T18:19:14.649Z,78.41
2022-09-09T18:21:20.584Z,78.45
2022-09-09T18:23:23.139Z,78.72
2022-09-09T18:25:25.801Z,78.88
2022-09-09T18:27:29.412Z,79.17
2022-09-09T18:29:32.111Z,79.56
2022-09-09T18:31:35.802Z,79.51
2022-09-09T18:33:41.902Z,79.80
2022-09-09T18:35:46.775Z,79.92
2022-09-09T18:37:49.347Z,79.64
2022-09-09T18:39:53.458Z,79.57
2022-09-09T18:42:02.778Z,79.19
2022-09-09T18:44:10.186Z,79.31
2022-09-09T18:46:13.085Z,78.75
2022-09-09T18:48:15.692Z,79.19
2022-09-09T18:50:19.257Z,79.07
2022-09-09T18:52:21.920Z,78.95
2022-09-09T18:54:29.744Z,79.60
2022-09-09T18:56:32.614Z,80.21
2022-09-09T18:58:35.951Z,80.96
2022-09-09T19:00:38.744Z,81.30
2022-09-09T19:02:41.392Z,81.23
2022-09-09T19:04:43.999Z,81.79
2022-09-09T19:06:48.307Z,81.84
2022-09-09T19:08:55.236Z,81.97
2022-09-09T19:11:02.765Z,82.72
2022-09-09T19:13:06.959Z,82.73
2022-09-09T19:15:10.467Z,83.24
2022-09-09T19:17:13.511Z,83.73
2022-09-09T19:19:19.711Z,83.81
2022-09-09T19:21:25.653Z,83.29
2022-09-09T19:23:31.370Z,83.07
2022-09-09T19:25:40.056Z,82.95
2022-09-09T19:27:43.340Z,83.02
2022-09-09T19:29:46.007Z,82.94
2022-09-09T19:32:18.668Z,83.15
2022-09-09T19:34:14.631Z,82.89
2022-09-09T19:36:19.218Z,82.71
2022-09-09T19:38:21.751Z,82.83
2022-09-09T19:40:24.554Z,83.04
2022-09-09T19:42:27.298Z,83.39
2022-09-09T19:44:29.916Z,82.88
2022-09-09T19:46:35.866Z,82.48
2022-09-09T19:48:40.953Z,82.07
2022-09-09T19:50:44.511Z,82.22
2022-09-09T19:52:47.378Z,82.40
2022-09-09T19:54:50.058Z,82.11
2022-09-09T19:56:52.692Z,82.32
2022-09-09T19:58:55.417Z,82.12
2022-09-09T20:01:06.033Z,82.07
2022-09-09T20:03:19.320Z,82.46
2022-09-09T20:05:23.920Z,82.75
2022-09-09T20:07:26.469Z,82.57
2022-09-09T20:09:30.662Z,82.37
2022-09-09T20:11:34.053Z,82.95
2022-09-09T20:13:39.089Z,82.85
2022-09-09T20:15:42.030Z,82.91
2022-09-09T20:17:44.992Z,82.25
2022-09-09T20:19:47.574Z,81.96
2022-09-09T20:21:50.193Z,81.56
2022-09-09T20:23:53.878Z,81.56
2022-09-09T20:26:00.544Z,81.81
2022-09-09T20:28:04.038Z,82.08
2022-09-09T20:30:07.867Z,81.75
2022-09-09T20:32:10.555Z,81.78
2022-09-09T20:34:16.558Z,82.43
2022-09-09T20:36:20.225Z,82.35
2022-09-09T20:38:23.407Z,82.86
2022-09-09T20:40:28.390Z,83.33
2022-09-09T20:42:34.147Z,83.35
2022-09-09T20:44:37.902Z,84.24
2022-09-09T20:46:43.231Z,83.96
2022-09-09T20:48:47.683Z,84.38
2022-09-09T20:50:50.650Z,84.84
2022-09-09T20:52:53.386Z,85.24
2022-09-09T20:54:56.211Z,84.82
2022-09-09T20:57:00.580Z,85.04
2022-09-09T20:59:03.861Z,85.07
2022-09-09T21:01:07.653Z,85.27
2022-09-09T21:03:10.253Z,85.48
2022-09-09T21:05:13.095Z,85.29
2022-09-09T21:07:15.670Z,85.47
2022-09-09T21:09:18.689Z,85.27
2022-09-09T21:11:21.526Z,85.12
2022-09-09T21:13:25.094Z,85.02
2022-09-09T21:15:28.345Z,85.47
2022-09-09T21:17:30.832Z,85.47
2022-09-09T21:19:33.387Z,86.27
2022-09-09T21:21:36.549Z,86.43
2022-09-09T21:23:39.630Z,86.52
2022-09-09T21:25:43.019Z,87.36
2022-09-09T21:27:45.837Z,88.08
2022-09-09T21:29:48.495Z,88.16
2022-09-09T21:31:51.211Z,88.90
2022-09-09T21:33:53.774Z,89.35
2022-09-09T21:36:02.870Z,89.53
2022-09-09T21:38:07.039Z,89.83
2022-09-09T21:40:10.149Z,90.12
2022-09-09T21:42:14.224Z,90.36
2022-09-09T21:44:16.891Z,90.61
2022-09-09T21:46:19.520Z,90.95
2022-09-09T21:48:24.002Z,90.93
2022-09-09T21:50:28.658Z,90.91
2022-09-09T21:52:32.197Z,90.81
2022-09-09T21:54:34.867Z,91.30
2022-09-09T21:56:37.496Z,91.28
2022-09-09T21:58:43.429Z,91.35
2022-09-09T22:00:47.608Z,91.33
2022-09-09T22:02:50.182Z,91.48
2022-09-09T22:04:52.706Z,91.54
2022-09-09T22:06:55.379Z,91.65
2022-09-09T22:08:59.289Z,91.79
2022-09-09T22:11:22.636Z,91.77
2022-09-09T22:13:25.442Z,92.10
2022-09-09T22:15:29.454Z,92.09
2022-09-09T22:17:32.052Z,92.24
2022-09-09T22:19:35.239Z,92.31
2022-09-09T22:21:37.828Z,92.20
2022-09-09T22:23:41.058Z,92.12
2022-09-09T22:25:44.395Z,92.13
2022-09-09T22:27:46.978Z,92.02
2022-09-09T22:29:49.596Z,92.38
2022-09-09T22:31:53.459Z,92.61
2022-09-09T22:33:56.233Z,92.66
2022-09-09T22:35:58.899Z,93.17
2022-09-09T22:38:01.597Z,93.46
2022-09-09T22:40:04.577Z,93.44
2022-09-09T22:42:07.759Z,93.66
2022-09-09T22:44:10.537Z,94.05
2022-09-09T22:46:13.778Z,93.96
2022-09-09T22:48:16.488Z,94.10
2022-09-09T22:50:20.444Z,93.98
2022-09-09T22:52:24.833Z,94.59
2022-09-09T22:54:27.393Z,94.83
2022-09-09T22:56:30.101Z,95.04
2022-09-09T22:58:34.854Z,95.28
2022-09-09T23:00:41.377Z,95.48
2022-09-09T23:02:44.354Z,95.91
2022-09-09T23:04:48.017Z,96.13
2022-09-09T23:06:50.623Z,96.16
2022-09-09T23:08:58.082Z,96.79
2022-09-09T23:11:04.429Z,96.90
2022-09-09T23:13:08.916Z,97.29
2022-09-09T23:15:12.636Z,97.52
2022-09-09T23:17:16.390Z,98.35
2022-09-09T23:19:21.892Z,98.03
2022-09-09T23:21:26.553Z,97.70
2022-09-09T23:23:29.647Z,97.87
2022-09-09T23:25:34.773Z,98.13
2022-09-09T23:27:40.464Z,97.59
2022-09-09T23:29:43.103Z,97.40
2022-09-09T23:31:46.443Z,97.61
2022-09-09T23:33:49.575Z,97.81
2022-09-09T23:36:02.279Z,97.32
2022-09-09T23:38:05.365Z,97.56
2022-09-09T23:40:08.692Z,97.32
2022-09-09T23:42:11.935Z,97.77
2022-09-09T23:44:15.074Z,98.10
2022-09-09T23:46:20.503Z,98.25
2022-09-09T23:48:27.322Z,98.86
2022-09-09T23:50:30.585Z,99.17
2022-09-09T23:52:33.323Z,99.56
2022-09-09T23:54:36.144Z,100.00
2022-09-09T23:56:41.438Z,100.00
2022-09-09T23:58:44.193Z,100.00
